Terminal Aerodrome Forecast
Issued by NWS

Current Version | Previous Version | Graphics & Text | Print | Product List | Glossary Off
Versions: 1 2 3 4 5 6 7 8 9 10 11 12 13 14 15 16 17 18

000
FTUS41 KRNK 211322 AAA
TAFLWB
TAF AMD
KLWB 211322Z 2113/2212 03005KT P6SM BKN050
     FM211800 22008G16KT P6SM BKN040
      TEMPO 2118/2121 4SM -SHRA OVC015
     FM212100 22009KT P6SM VCSH BKN040
     FM220000 22004KT P6SM BKN045
     FM220600 VRB03KT P6SM BKN008=

USA.gov is the U.S. government's official web portal to all federal, state and local government web resources and services.